Santa Rosa, CA (95404)

10:13 AM PST on December 06, 2016 (GMT -0800)
Montecito Heigts | | Change Station

Elev 386 ft 38.46 °N, 122.70 °W | Updated 30 seconds ago

Mostly Cloudy
Mostly Cloudy
43.4 °F
Feels Like 43 °F
N
0.0
Wind Variable Wind from NNE

Today
High -- | Low -- °F
--% Chance of Precip.
Yesterday
High -- | Low -- °F
Precip. -- in
Pressure 30.09 in
Visibility 10.0 miles
Clouds Scattered Clouds 4000 ft
Mostly Cloudy 20000 ft
Windchill 43 °F
Dew Point 36 °F
Humidity 76%
Rainfall 0.00 in
Snow Depth Not available.
7:14 AM 4:49 PM
Waxing Crescent, 44% visible
METAR KSTS 061753Z VRB03KT 10SM SCT040 BKN200 07/03 A3010 RMK AO2 SLP188 T00670028 10072 21011 51009
Pressure 30.09 in
Visibility 10.0 miles
Clouds Scattered Clouds 4000 ft
Mostly Cloudy 20000 ft
Windchill 43 °F
Dew Point 36 °F
Humidity 76%
Rainfall 0.00 in
Snow Depth Not available.
7:14 AM 4:49 PM
Waxing Crescent, 44% visible
METAR KSTS 061753Z VRB03KT 10SM SCT040 BKN200 07/03 A3010 RMK AO2 SLP188 T00670028 10072 21011 51009

10-Day Weather Forecast

Almanac

Astronomy

Dec. 06, 2016 Rise Set
Actual Time
Civil Twilight
Nautical Twilight
Astronomical Twilight
Moon
Length of Visible Light
Length of Day
Tomorrow will be .
, % of the Moon is Illuminated

Today's Extremes

State Highs State Lows

Community

WunderPhotos

Upload Photos

1,955,997 photos uploaded!

WunderBlog® & News

Nearby

Air Quality

  Air Quality AQ Index Pollutant
Not available.

Snow Depth

Station Depth Elevation

Earthquake Activity

City Distance Mag. Time & Date
Minimum magnitude displayed is 2.5.

Coastal Water Temperatures

Place Temperature

Stations

Nearby Weather Stations

Station Location Temp. Windchill Dew Point Humidity Wind Precip. Elev Updated Type
                   

Watches & Warnings

There are currently no watches in effect.